Time;durP1;ratioP1;P1;durP2;ratioP2;P2;SDS_P1;SDS_P2;PMS_P1;PMS_P2;Temp;Humidity;BMP_temperature;BMP_pressure;BME280_temperature;BME280_humidity;BME280_pressure;Samples;Min_cycle;Max_cycle;Signal;HPM_P1;HPM_P2
2021/08/08 00:02:23;;;;;;;13.10;3.78;;;;;;;;;;5020637;28;20022;-94
2021/08/08 00:04:48;;;;;;;18.70;3.75;;;;;;;;;;5015368;28;20105;-92
2021/08/08 00:07:14;;;;;;;8.55;3.60;;;;;;;;;;5020256;28;20488;-92
2021/08/08 00:09:39;;;;;;;17.48;3.97;;;;;;;;;;5022393;28;20022;-92
2021/08/08 00:12:04;;;;;;;8.70;3.60;;;;;;;;;;5019732;28;20025;-92
2021/08/08 00:14:29;;;;;;;11.68;3.80;;;;;;;;;;5012690;28;20022;-93
2021/08/08 00:16:54;;;;;;;10.45;3.30;;;;;;;;;;5019750;28;20018;-92
2021/08/08 00:19:20;;;;;;;10.82;3.42;;;;;;;;;;5012857;28;20026;-92
2021/08/08 00:21:45;;;;;;;15.82;4.03;;;;;;;;;;5018261;28;20362;-92
2021/08/08 00:24:10;;;;;;;17.15;3.78;;;;;;;;;;5015027;28;20018;-93
2021/08/08 00:26:35;;;;;;;14.98;4.10;;;;;;;;;;5015082;28;20036;-92
2021/08/08 00:29:01;;;;;;;11.55;3.53;;;;;;;;;;5022476;28;20108;-92
2021/08/08 00:31:26;;;;;;;10.80;3.60;;;;;;;;;;5022415;28;20117;-93
2021/08/08 00:33:52;;;;;;;9.50;3.58;;;;;;;;;;5020512;28;20064;-93
2021/08/08 00:36:17;;;;;;;12.45;4.18;;;;;;;;;;5012161;28;20174;-93
2021/08/08 00:38:42;;;;;;;11.30;3.50;;;;;;;;;;5012434;28;20084;-93
2021/08/08 00:41:07;;;;;;;11.20;3.45;;;;;;;;;;5024027;28;20029;-92
2021/08/08 00:43:33;;;;;;;8.43;3.08;;;;;;;;;;5012432;28;20061;-92
2021/08/08 00:45:58;;;;;;;15.13;3.60;;;;;;;;;;5015966;28;20033;-92
2021/08/08 00:48:24;;;;;;;7.88;3.30;;;;;;;;;;5020166;28;20092;-92
2021/08/08 00:50:49;;;;;;;12.77;3.40;;;;;;;;;;5012477;28;20022;-92
2021/08/08 00:53:14;;;;;;;10.10;3.10;;;;;;;;;;5013596;28;20073;-92
2021/08/08 00:55:39;;;;;;;16.65;3.60;;;;;;;;;;5027850;28;20025;-93
2021/08/08 00:58:05;;;;;;;15.63;3.13;;;;;;;;;;5012772;28;20014;-93
2021/08/08 01:00:30;;;;;;;10.73;2.80;;;;;;;;;;5023671;28;20573;-93
2021/08/08 01:03:00;;;;;;;9.80;3.03;;;;;;;;;;5021294;28;20049;-92
2021/08/08 01:05:33;;;;;;;13.75;2.80;;;;;;;;;;5024525;28;20036;-92
2021/08/08 01:07:58;;;;;;;;;;;;;;;;;;5013985;28;20034;-92
2021/08/08 01:10:23;;;;;;;10.13;2.90;;;;;;;;;;5019870;28;19932;-93
2021/08/08 01:12:49;;;;;;;11.23;2.85;;;;;;;;;;5022244;28;20286;-92
2021/08/08 01:15:15;;;;;;;15.85;3.40;;;;;;;;;;5011917;28;20034;-92
2021/08/08 01:17:42;;;;;;;14.77;2.80;;;;;;;;;;5015206;28;20462;-92
2021/08/08 01:20:09;;;;;;;13.50;2.65;;;;;;;;;;5022787;28;20018;-92
2021/08/08 01:22:35;;;;;;;9.35;2.40;;;;;;;;;;5049075;28;20373;-92
2021/08/08 01:25:01;;;;;;;13.32;2.63;;;;;;;;;;5015549;28;20466;-93
2021/08/08 01:27:27;;;;;;;14.07;3.05;;;;;;;;;;5015864;28;20040;-93
2021/08/08 01:29:53;;;;;;;14.50;2.90;;;;;;;;;;5023201;28;20160;-92
2021/08/08 01:32:19;;;;;;;12.82;2.80;;;;;;;;;;5027903;28;20473;-92
2021/08/08 01:34:44;;;;;;;10.75;2.80;;;;;;;;;;5025256;28;20006;-92
2021/08/08 01:37:09;;;;;;;9.88;2.35;;;;;;;;;;5049251;28;20018;-92
2021/08/08 01:39:35;;;;;;;9.48;2.97;;;;;;;;;;5058845;28;20026;-92
2021/08/08 01:42:03;;;;;;;14.80;3.03;;;;;;;;;;5024622;28;20036;-92
2021/08/08 01:44:37;;;;;;;15.25;2.85;;;;;;;;;;5026619;28;20599;-92
2021/08/08 01:47:02;;;;;;;11.23;2.55;;;;;;;;;;5024869;28;20040;-93
2021/08/08 01:49:28;;;;;;;14.60;2.90;;;;;;;;;;5019801;28;20026;-92
2021/08/08 01:51:54;;;;;;;11.45;2.92;;;;;;;;;;5015067;28;20033;-92
2021/08/08 01:54:20;;;;;;;8.65;2.58;;;;;;;;;;5015521;28;20022;-93
2021/08/08 01:56:45;;;;;;;45.97;4.47;;;;;;;;;;5023682;28;20022;-92
2021/08/08 01:59:11;;;;;;;16.00;3.47;;;;;;;;;;5017543;28;20048;-93
2021/08/08 02:01:36;;;;;;;9.75;2.60;;;;;;;;;;5020736;28;20024;-93
2021/08/08 02:04:02;;;;;;;15.95;2.88;;;;;;;;;;5017707;28;20052;-93
2021/08/08 02:06:27;;;;;;;10.95;2.80;;;;;;;;;;5022570;28;20492;-93
2021/08/08 02:08:52;;;;;;;12.48;2.95;;;;;;;;;;5023012;28;20067;-93
2021/08/08 02:11:17;;;;;;;17.65;3.05;;;;;;;;;;5025778;28;20400;-93
2021/08/08 02:13:42;;;;;;;11.10;2.83;;;;;;;;;;5019165;28;20022;-93
2021/08/08 02:16:07;;;;;;;12.23;3.15;;;;;;;;;;5014679;28;20033;-91
2021/08/08 02:18:33;;;;;;;12.93;2.58;;;;;;;;;;5018935;28;20430;-93
2021/08/08 02:20:58;;;;;;;11.15;2.72;;;;;;;;;;5015369;28;20021;-92
2021/08/08 02:23:23;;;;;;;13.20;2.72;;;;;;;;;;5022432;28;20029;-92
2021/08/08 02:25:51;;;;;;;17.50;4.93;;;;;;;;;;5024776;28;20461;-92
2021/08/08 02:28:16;;;;;;;12.30;2.70;;;;;;;;;;5014441;28;20030;-93
2021/08/08 02:30:41;;;;;;;17.55;2.67;;;;;;;;;;5022726;28;20446;-92
2021/08/08 02:33:07;;;;;;;11.07;2.67;;;;;;;;;;5014776;28;20109;-93
2021/08/08 02:35:32;;;;;;;12.75;2.72;;;;;;;;;;5024869;28;20373;-92
2021/08/08 02:37:57;;;;;;;16.95;2.80;;;;;;;;;;5023795;28;20509;-93
2021/08/08 02:40:22;;;;;;;31.73;6.18;;;;;;;;;;5022824;28;20022;-93
2021/08/08 02:42:48;;;;;;;15.23;2.67;;;;;;;;;;5015455;28;20022;-93
2021/08/08 02:45:13;;;;;;;14.98;2.90;;;;;;;;;;5020958;28;20045;-93
2021/08/08 02:47:38;;;;;;;18.55;3.22;;;;;;;;;;5021934;28;20061;-92
2021/08/08 02:50:05;;;;;;;12.30;2.70;;;;;;;;;;5014400;28;20021;-93
2021/08/08 02:52:30;;;;;;;16.35;3.00;;;;;;;;;;5016945;28;20022;-92
2021/08/08 02:54:55;;;;;;;15.75;2.78;;;;;;;;;;5014339;28;20087;-92
2021/08/08 02:57:20;;;;;;;10.95;2.80;;;;;;;;;;5021742;28;20025;-93
2021/08/08 02:59:46;;;;;;;13.63;3.63;;;;;;;;;;5014183;28;20014;-93
2021/08/08 03:02:11;;;;;;;14.23;4.03;;;;;;;;;;5020492;28;20029;-92
2021/08/08 03:04:36;;;;;;;17.15;2.97;;;;;;;;;;5018037;28;20092;-92
2021/08/08 03:07:01;;;;;;;9.48;2.67;;;;;;;;;;5018092;28;20548;-92
2021/08/08 03:09:27;;;;;;;20.80;3.67;;;;;;;;;;5020446;28;20025;-93
2021/08/08 03:11:52;;;;;;;12.25;3.42;;;;;;;;;;5013624;28;20034;-93
2021/08/08 03:14:17;;;;;;;16.92;3.25;;;;;;;;;;5014149;28;20120;-92
2021/08/08 03:16:43;;;;;;;14.18;3.33;;;;;;;;;;5019625;28;20018;-93
2021/08/08 03:19:12;;;;;;;14.45;2.78;;;;;;;;;;5017968;28;20452;-92
2021/08/08 03:21:38;;;;;;;14.10;3.72;;;;;;;;;;5016357;28;20508;-93
2021/08/08 03:24:03;;;;;;;14.32;2.60;;;;;;;;;;5021509;28;20047;-93
2021/08/08 03:26:29;;;;;;;8.65;2.58;;;;;;;;;;5024989;28;20052;-92
2021/08/08 03:28:54;;;;;;;14.80;2.70;;;;;;;;;;5019578;28;20445;-92
2021/08/08 03:31:20;;;;;;;9.43;2.83;;;;;;;;;;5018821;28;20053;-92
2021/08/08 03:33:45;;;;;;;15.05;3.30;;;;;;;;;;5016535;28;20037;-91
2021/08/08 03:36:13;;;;;;;9.02;2.78;;;;;;;;;;5021666;28;20022;-92
2021/08/08 03:38:39;;;;;;;13.75;3.20;;;;;;;;;;5014219;28;20034;-93
2021/08/08 03:41:04;;;;;;;8.10;3.08;;;;;;;;;;5024715;28;20072;-92
2021/08/08 03:43:29;;;;;;;16.75;3.15;;;;;;;;;;5013913;28;20029;-92
2021/08/08 03:45:54;;;;;;;9.68;2.80;;;;;;;;;;5012805;28;20409;-92
2021/08/08 03:48:20;;;;;;;13.68;3.20;;;;;;;;;;5013548;28;20026;-93
2021/08/08 03:50:45;;;;;;;19.20;3.05;;;;;;;;;;5025607;28;20108;-93
2021/08/08 03:53:10;;;;;;;18.20;3.50;;;;;;;;;;5013187;28;20092;-92
2021/08/08 03:55:35;;;;;;;20.35;3.88;;;;;;;;;;5018207;28;20028;-91
2021/08/08 03:58:00;;;;;;;13.43;3.25;;;;;;;;;;5020245;28;20014;-92
2021/08/08 04:00:26;;;;;;;20.48;4.18;;;;;;;;;;5013485;28;20073;-92
2021/08/08 04:02:51;;;;;;;18.42;3.05;;;;;;;;;;5013096;28;20018;-92
2021/08/08 04:05:16;;;;;;;11.07;3.40;;;;;;;;;;5022924;28;20025;-92
2021/08/08 04:07:41;;;;;;;16.35;3.92;;;;;;;;;;5025759;28;20022;-92
2021/08/08 04:10:07;;;;;;;15.45;3.53;;;;;;;;;;5021296;28;20109;-93
2021/08/08 04:12:32;;;;;;;14.30;3.60;;;;;;;;;;5024108;28;20025;-92
2021/08/08 04:14:57;;;;;;;17.45;3.80;;;;;;;;;;5013890;28;20112;-93
2021/08/08 04:17:26;;;;;;;15.88;3.63;;;;;;;;;;5021565;28;20044;-92
2021/08/08 04:19:51;;;;;;;17.77;4.03;;;;;;;;;;5012876;28;20446;-92
2021/08/08 04:22:16;;;;;;;13.30;3.30;;;;;;;;;;5012719;28;20032;-92
2021/08/08 04:24:41;;;;;;;14.80;3.22;;;;;;;;;;5015577;28;20033;-92
2021/08/08 04:27:06;;;;;;;17.02;3.38;;;;;;;;;;5012817;28;20017;-93
2021/08/08 04:29:32;;;;;;;19.23;3.50;;;;;;;;;;5012393;28;20026;-93
2021/08/08 04:31:57;;;;;;;14.23;2.90;;;;;;;;;;5013205;28;20013;-92
2021/08/08 04:34:22;;;;;;;14.15;2.97;;;;;;;;;;5012224;28;20033;-93
2021/08/08 04:36:47;;;;;;;9.30;2.72;;;;;;;;;;5022158;28;20034;-92
2021/08/08 04:39:12;;;;;;;13.35;3.47;;;;;;;;;;5012585;28;20363;-92
2021/08/08 04:41:38;;;;;;;14.00;3.38;;;;;;;;;;5012485;28;20041;-92
2021/08/08 04:44:03;;;;;;;13.45;3.40;;;;;;;;;;5018445;28;20382;-93
2021/08/08 04:46:28;;;;;;;17.02;3.50;;;;;;;;;;5014603;28;20029;-92
2021/08/08 04:48:53;;;;;;;23.60;3.28;;;;;;;;;;5012402;28;20449;-92
2021/08/08 04:51:19;;;;;;;12.85;3.53;;;;;;;;;;5012251;28;20118;-92
2021/08/08 04:53:44;;;;;;;12.35;2.75;;;;;;;;;;5022135;28;20108;-92
2021/08/08 04:56:09;;;;;;;9.93;2.70;;;;;;;;;;5016599;28;20049;-93
2021/08/08 04:58:34;;;;;;;12.10;3.30;;;;;;;;;;5016270;28;20026;-92
2021/08/08 05:01:00;;;;;;;11.25;2.72;;;;;;;;;;5023779;28;20460;-92
2021/08/08 05:03:25;;;;;;;11.85;2.85;;;;;;;;;;5016482;28;20116;-91
2021/08/08 05:05:50;;;;;;;13.18;3.03;;;;;;;;;;5027192;28;20029;-93
2021/08/08 05:08:15;;;;;;;18.08;3.17;;;;;;;;;;5016370;28;20119;-92
2021/08/08 05:10:40;;;;;;;15.07;2.88;;;;;;;;;;5022421;28;20056;-93
2021/08/08 05:13:06;;;;;;;13.43;2.47;;;;;;;;;;5017190;28;20054;-92
2021/08/08 05:15:31;;;;;;;14.38;3.17;;;;;;;;;;5022056;28;20022;-92
2021/08/08 05:17:57;;;;;;;15.52;2.90;;;;;;;;;;5016012;28;20021;-93
2021/08/08 05:20:22;;;;;;;11.40;2.40;;;;;;;;;;5023407;28;20076;-93
2021/08/08 05:22:47;;;;;;;12.07;2.65;;;;;;;;;;5021465;28;20353;-93
2021/08/08 05:25:12;;;;;;;14.07;2.72;;;;;;;;;;5024038;28;20029;-92
2021/08/08 05:27:38;;;;;;;18.55;3.80;;;;;;;;;;5016129;28;20034;-92
2021/08/08 05:30:04;;;;;;;11.95;2.75;;;;;;;;;;5015753;28;20073;-92
2021/08/08 05:32:30;;;;;;;8.40;2.40;;;;;;;;;;5015920;28;20026;-93
2021/08/08 05:34:55;;;;;;;14.18;2.80;;;;;;;;;;5017185;28;20033;-93
2021/08/08 05:37:22;;;;;;;14.48;2.90;;;;;;;;;;5022151;28;20014;-93
2021/08/08 05:39:47;;;;;;;15.75;2.70;;;;;;;;;;5015917;28;20040;-92
2021/08/08 05:42:12;;;;;;;12.77;2.75;;;;;;;;;;5018763;28;20017;-92
2021/08/08 05:44:38;;;;;;;17.30;3.38;;;;;;;;;;5024088;28;20536;-93
2021/08/08 05:47:06;;;;;;;15.73;2.53;;;;;;;;;;5014357;28;20099;-93
2021/08/08 05:49:33;;;;;;;13.23;3.08;;;;;;;;;;5014367;28;20030;-93
2021/08/08 05:51:59;;;;;;;14.82;2.38;;;;;;;;;;5014135;28;20465;-92
2021/08/08 05:54:24;;;;;;;8.35;2.30;;;;;;;;;;5014556;28;20113;-93
2021/08/08 05:56:49;;;;;;;11.45;2.70;;;;;;;;;;5020902;28;20021;-92
2021/08/08 05:59:14;;;;;;;14.55;3.22;;;;;;;;;;5018232;28;20535;-93
2021/08/08 06:01:39;;;;;;;13.43;2.58;;;;;;;;;;5014230;28;20022;-92
2021/08/08 06:04:05;;;;;;;12.75;2.80;;;;;;;;;;5022383;28;20021;-92
2021/08/08 06:06:31;;;;;;;17.42;3.22;;;;;;;;;;5014518;28;20021;-93
2021/08/08 06:08:57;;;;;;;18.55;3.15;;;;;;;;;;5018710;28;20022;-92
2021/08/08 06:11:22;;;;;;;8.60;2.90;;;;;;;;;;5014449;28;20024;-92
2021/08/08 06:13:47;;;;;;;16.77;3.05;;;;;;;;;;5019034;28;20017;-92
2021/08/08 06:16:12;;;;;;;22.60;4.20;;;;;;;;;;5015074;28;20049;-92
2021/08/08 06:18:38;;;;;;;12.13;3.08;;;;;;;;;;5027375;28;20037;-92
2021/08/08 06:21:03;;;;;;;19.13;3.10;;;;;;;;;;5014013;28;20373;-93
2021/08/08 06:23:28;;;;;;;16.33;3.17;;;;;;;;;;5019912;28;20048;-93
2021/08/08 06:25:54;;;;;;;10.48;3.20;;;;;;;;;;5017393;28;20029;-93
2021/08/08 06:28:19;;;;;;;11.93;3.08;;;;;;;;;;5014267;28;20030;-92
2021/08/08 06:30:44;;;;;;;15.95;3.33;;;;;;;;;;5018291;28;20021;-92
2021/08/08 06:33:11;;;;;;;18.45;3.90;;;;;;;;;;5018076;28;20025;-92
2021/08/08 06:35:36;;;;;;;14.40;3.55;;;;;;;;;;5016955;28;20384;-92
2021/08/08 06:38:02;;;;;;;12.25;3.40;;;;;;;;;;5020482;28;20022;-93
2021/08/08 06:40:27;;;;;;;16.20;3.22;;;;;;;;;;5022510;28;20022;-93
2021/08/08 06:42:52;;;;;;;12.57;3.65;;;;;;;;;;5022406;28;20026;-93
2021/08/08 06:45:17;;;;;;;18.13;3.13;;;;;;;;;;4972296;28;1194680;-93
2021/08/08 06:47:43;;;;;;;10.60;2.90;;;;;;;;;;5014854;28;20500;-93
2021/08/08 06:50:08;;;;;;;11.68;3.33;;;;;;;;;;5013870;28;20017;-93
2021/08/08 06:52:33;;;;;;;14.13;3.58;;;;;;;;;;5015515;28;20040;-93
2021/08/08 06:54:58;;;;;;;15.73;3.00;;;;;;;;;;5021759;28;20128;-92
2021/08/08 06:57:24;;;;;;;13.38;3.78;;;;;;;;;;5022091;28;20433;-93
2021/08/08 06:59:49;;;;;;;12.57;2.90;;;;;;;;;;5009079;28;20097;-93
2021/08/08 07:02:15;;;;;;;15.20;2.60;;;;;;;;;;5018759;28;20091;-93
2021/08/08 07:04:40;;;;;;;11.43;2.90;;;;;;;;;;5019772;28;20022;-92
2021/08/08 07:07:05;;;;;;;16.77;3.10;;;;;;;;;;5014690;28;20083;-92
2021/08/08 07:09:30;;;;;;;12.65;3.00;;;;;;;;;;5013817;28;20033;-93
2021/08/08 07:11:55;;;;;;;11.80;2.92;;;;;;;;;;5013927;28;20036;-92
2021/08/08 07:14:21;;;;;;;13.80;3.10;;;;;;;;;;5020859;28;20029;-92
2021/08/08 07:16:46;;;;;;;12.65;3.22;;;;;;;;;;5014739;28;20104;-93
2021/08/08 07:19:11;;;;;;;14.40;2.70;;;;;;;;;;5021949;28;20026;-93
2021/08/08 07:21:36;;;;;;;13.38;2.80;;;;;;;;;;5017868;28;20014;-93
2021/08/08 07:24:02;;;;;;;15.50;3.28;;;;;;;;;;5017278;28;20028;-92
2021/08/08 07:26:27;;;;;;;20.50;3.42;;;;;;;;;;5017696;28;20017;-93
2021/08/08 07:28:53;;;;;;;16.77;3.53;;;;;;;;;;5021900;28;20041;-93
2021/08/08 07:31:18;;;;;;;16.00;2.92;;;;;;;;;;5026845;28;20037;-93
2021/08/08 07:33:43;;;;;;;11.23;2.88;;;;;;;;;;5022027;28;20372;-93
2021/08/08 07:36:10;;;;;;;12.13;2.90;;;;;;;;;;5013544;28;20021;-93
2021/08/08 07:38:35;;;;;;;11.50;3.10;;;;;;;;;;5013373;28;20022;-93
2021/08/08 07:41:01;;;;;;;13.75;2.88;;;;;;;;;;5022233;28;20018;-93
2021/08/08 07:43:26;;;;;;;12.80;3.17;;;;;;;;;;5023588;28;20028;-93
2021/08/08 07:45:51;;;;;;;13.57;2.70;;;;;;;;;;5020929;28;20018;-93
2021/08/08 07:48:16;;;;;;;15.18;3.33;;;;;;;;;;5013268;28;20026;-93
2021/08/08 07:50:42;;;;;;;16.70;3.40;;;;;;;;;;5023641;28;20126;-93
2021/08/08 07:53:07;;;;;;;12.98;2.92;;;;;;;;;;5013312;28;20534;-93
2021/08/08 07:55:32;;;;;;;11.40;3.38;;;;;;;;;;5015679;28;20118;-93
2021/08/08 07:57:57;;;;;;;7.78;2.88;;;;;;;;;;5016169;28;20129;-92
2021/08/08 08:00:23;;;;;;;13.05;2.78;;;;;;;;;;5012822;28;20076;-93
2021/08/08 08:02:48;;;;;;;14.40;3.25;;;;;;;;;;5020906;28;20018;-93
2021/08/08 08:05:13;;;;;;;15.30;3.15;;;;;;;;;;5014255;28;20022;-93
2021/08/08 08:07:38;;;;;;;13.68;2.88;;;;;;;;;;5017716;28;20029;-93
2021/08/08 08:10:04;;;;;;;12.80;3.30;;;;;;;;;;5012727;28;20017;-93
2021/08/08 08:12:30;;;;;;;14.13;3.17;;;;;;;;;;5013298;28;20025;-93
2021/08/08 08:14:55;;;;;;;11.90;3.08;;;;;;;;;;5012743;28;20587;-93
2021/08/08 08:17:20;;;;;;;16.08;3.25;;;;;;;;;;5012618;28;20069;-93
2021/08/08 08:19:45;;;;;;;8.43;2.97;;;;;;;;;;5020190;28;20504;-93
2021/08/08 08:22:15;;;;;;;10.23;2.80;;;;;;;;;;5012555;28;20037;-93
2021/08/08 08:24:40;;;;;;;19.17;2.97;;;;;;;;;;5012335;28;20100;-93
2021/08/08 08:27:06;;;;;;;13.48;3.00;;;;;;;;;;5022435;28;20022;-93
2021/08/08 08:29:31;;;;;;;10.65;2.53;;;;;;;;;;5012646;28;20466;-93
2021/08/08 08:31:56;;;;;;;9.63;2.97;;;;;;;;;;5023568;28;20022;-93
2021/08/08 08:34:21;;;;;;;13.68;2.85;;;;;;;;;;5023057;28;20034;-93
2021/08/08 08:36:46;;;;;;;12.52;2.78;;;;;;;;;;5016054;28;20080;-93
2021/08/08 08:39:12;;;;;;;16.00;3.10;;;;;;;;;;5013246;28;20026;-93
2021/08/08 08:41:37;;;;;;;9.55;2.65;;;;;;;;;;5012380;28;20018;-93
2021/08/08 08:44:02;;;;;;;11.18;2.80;;;;;;;;;;5013009;28;20318;-93
2021/08/08 08:46:28;;;;;;;9.52;2.30;;;;;;;;;;5021541;28;20120;-93
2021/08/08 08:48:54;;;;;;;16.77;2.80;;;;;;;;;;5014194;28;20026;-93
2021/08/08 08:51:24;;;;;;;11.50;2.92;;;;;;;;;;5012656;28;20026;-93
2021/08/08 08:53:50;;;;;;;11.13;2.40;;;;;;;;;;5023023;28;20018;-94
2021/08/08 08:56:15;;;;;;;14.93;2.13;;;;;;;;;;5020759;28;20025;-93
2021/08/08 08:58:41;;;;;;;10.95;2.75;;;;;;;;;;5013548;28;20014;-92
2021/08/08 09:01:06;;;;;;;12.20;2.17;;;;;;;;;;5023827;28;20062;-93
2021/08/08 09:03:31;;;;;;;7.45;2.40;;;;;;;;;;5045735;28;20033;-93
2021/08/08 09:05:56;;;;;;;10.32;2.30;;;;;;;;;;5012944;28;20161;-93
2021/08/08 09:08:21;;;;;;;9.93;2.35;;;;;;;;;;5013835;28;20037;-92
2021/08/08 09:11:03;;;;;;;15.88;2.65;;;;;;;;;;5012953;28;20022;-93
2021/08/08 09:13:28;;;;;;;8.55;2.17;;;;;;;;;;5043374;28;20030;-93
2021/08/08 09:15:53;;;;;;;14.43;2.88;;;;;;;;;;5020214;28;20116;-93
2021/08/08 09:18:22;;;;;;;13.05;2.28;;;;;;;;;;5012335;28;20049;-93
2021/08/08 09:20:48;;;;;;;11.93;2.13;;;;;;;;;;5020480;28;20017;-93
2021/08/08 09:23:15;;;;;;;13.70;2.08;;;;;;;;;;5020255;28;20045;-93
2021/08/08 09:25:50;;;;;;;6.53;1.67;;;;;;;;;;5014478;28;20057;-94
2021/08/08 09:28:15;;;;;;;16.02;2.45;;;;;;;;;;5013307;28;20079;-93
2021/08/08 09:30:41;;;;;;;11.55;2.00;;;;;;;;;;5013664;28;20030;-92
2021/08/08 09:33:07;;;;;;;16.25;2.10;;;;;;;;;;5017608;28;20441;-93
2021/08/08 09:35:37;;;;;;;11.20;2.00;;;;;;;;;;5013582;28;20107;-93
2021/08/08 09:38:04;;;;;;;8.63;2.83;;;;;;;;;;5016210;28;20039;-93
2021/08/08 09:40:31;;;;;;;11.68;2.45;;;;;;;;;;5017825;28;20049;-92
2021/08/08 09:42:58;;;;;;;11.65;1.70;;;;;;;;;;5019087;28;20041;-93
2021/08/08 09:45:33;;;;;;;7.47;1.75;;;;;;;;;;5015690;28;20037;-92
2021/08/08 09:47:58;;;;;;;6.25;1.80;;;;;;;;;;5023461;28;20026;-92
2021/08/08 09:50:25;;;;;;;8.05;1.80;;;;;;;;;;5015965;28;20104;-93
2021/08/08 09:52:58;;;;;;;6.82;1.75;;;;;;;;;;5015353;28;20048;-93
2021/08/08 09:55:27;;;;;;;16.75;2.90;;;;;;;;;;5023578;28;20037;-93
2021/08/08 09:57:53;;;;;;;9.77;1.98;;;;;;;;;;5020401;28;20105;-93
2021/08/08 10:00:25;;;;;;;10.75;1.92;;;;;;;;;;5018222;28;20056;-93
2021/08/08 10:02:51;;;;;;;7.90;1.90;;;;;;;;;;5021052;28;20025;-93
2021/08/08 10:05:16;;;;;;;6.00;1.63;;;;;;;;;;5017940;28;20013;-93
2021/08/08 10:07:42;;;;;;;6.10;1.80;;;;;;;;;;5015401;28;20425;-93
2021/08/08 10:10:08;;;;;;;8.15;1.65;;;;;;;;;;5015066;28;20018;-93
2021/08/08 10:12:39;;;;;;;7.85;1.85;;;;;;;;;;5015752;28;20104;-93
2021/08/08 10:15:05;;;;;;;5.68;1.67;;;;;;;;;;5027186;28;20018;-93
2021/08/08 10:17:34;;;;;;;7.43;1.83;;;;;;;;;;5020149;28;20026;-93
2021/08/08 10:20:00;;;;;;;9.52;1.80;;;;;;;;;;5028607;28;20477;-93
2021/08/08 10:22:26;;;;;;;10.82;2.42;;;;;;;;;;5014978;28;20462;-93
2021/08/08 10:24:54;;;;;;;6.40;1.80;;;;;;;;;;5020249;28;20028;-93
2021/08/08 10:27:21;;;;;;;6.80;1.80;;;;;;;;;;5015368;28;20113;-93
2021/08/08 10:29:50;;;;;;;6.10;1.50;;;;;;;;;;5022675;28;20080;-93
2021/08/08 10:32:16;;;;;;;6.45;1.70;;;;;;;;;;5027298;28;20029;-92
2021/08/08 10:34:41;;;;;;;6.10;1.50;;;;;;;;;;5021280;28;20026;-92
2021/08/08 10:37:13;;;;;;;10.00;2.15;;;;;;;;;;5014358;28;20036;-92
2021/08/08 10:39:41;;;;;;;10.85;1.70;;;;;;;;;;5019135;28;20084;-92
2021/08/08 10:42:06;;;;;;;7.68;1.88;;;;;;;;;;5023770;28;20528;-93
2021/08/08 10:44:31;;;;;;;5.47;1.70;;;;;;;;;;5014417;28;20025;-93
2021/08/08 10:46:56;;;;;;;5.13;1.48;;;;;;;;;;5014752;28;20381;-92
2021/08/08 10:49:32;;;;;;;4.68;1.50;;;;;;;;;;5014931;28;20033;-92
2021/08/08 10:52:01;;;;;;;8.55;1.90;;;;;;;;;;5013609;28;20034;-93
2021/08/08 10:54:26;;;;;;;11.75;2.13;;;;;;;;;;5016644;28;20049;-93
2021/08/08 10:56:52;;;;;;;7.22;1.40;;;;;;;;;;5017938;28;20049;-93
2021/08/08 10:59:21;;;;;;;4.82;1.27;;;;;;;;;;5014387;28;20105;-93
2021/08/08 11:01:47;;;;;;;11.00;1.80;;;;;;;;;;5018142;28;20021;-93
2021/08/08 11:04:12;;;;;;;6.22;1.50;;;;;;;;;;5014402;28;20358;-93
2021/08/08 11:06:40;;;;;;;4.38;1.38;;;;;;;;;;5014246;28;20024;-93
2021/08/08 11:09:06;;;;;;;6.80;1.30;;;;;;;;;;5015945;28;20071;-93
2021/08/08 11:11:32;;;;;;;6.95;1.40;;;;;;;;;;5018786;28;20108;-93
2021/08/08 11:14:16;;;;;;;4.78;1.40;;;;;;;;;;5014170;28;20532;-93
2021/08/08 11:16:44;;;;;;;5.95;1.33;;;;;;;;;;5022242;28;20033;-94
2021/08/08 11:19:09;;;;;;;6.57;1.42;;;;;;;;;;5015150;28;20029;-93
2021/08/08 11:21:35;;;;;;;5.95;1.30;;;;;;;;;;5017743;28;20014;-93
2021/08/08 11:24:01;;;;;;;5.93;1.40;;;;;;;;;;5022253;28;20060;-92
2021/08/08 11:26:26;;;;;;;5.15;1.40;;;;;;;;;;5023658;28;20017;-93
2021/08/08 11:28:53;;;;;;;7.50;1.50;;;;;;;;;;5033644;28;20076;-93
2021/08/08 11:31:20;;;;;;;3.70;1.58;;;;;;;;;;5033790;28;20040;-93
2021/08/08 11:33:45;;;;;;;6.57;1.17;;;;;;;;;;5031383;28;20049;-93
2021/08/08 11:36:10;;;;;;;3.40;0.93;;;;;;;;;;5014942;28;20061;-93
2021/08/08 11:38:36;;;;;;;6.80;1.55;;;;;;;;;;5014072;28;20017;-92
2021/08/08 11:41:01;;;;;;;3.85;1.20;;;;;;;;;;5018045;28;20074;-93
2021/08/08 11:43:30;;;;;;;4.68;1.52;;;;;;;;;;5027415;28;20109;-93
2021/08/08 11:45:57;;;;;;;3.30;1.13;;;;;;;;;;5016542;28;20041;-93
2021/08/08 11:48:27;;;;;;;5.97;1.30;;;;;;;;;;5021442;28;20033;-93
2021/08/08 11:50:56;;;;;;;5.55;1.65;;;;;;;;;;5017671;28;20054;-93
2021/08/08 11:53:28;;;;;;;5.00;1.08;;;;;;;;;;5019133;28;20118;-93
2021/08/08 11:55:53;;;;;;;7.07;1.35;;;;;;;;;;5047067;28;20018;-93
2021/08/08 11:58:19;;;;;;;4.13;1.20;;;;;;;;;;5032809;28;20036;-93
2021/08/08 12:00:44;;;;;;;7.95;1.58;;;;;;;;;;5021263;28;20465;-93
2021/08/08 12:03:09;;;;;;;4.80;1.40;;;;;;;;;;5051401;28;20013;-93
2021/08/08 12:05:35;;;;;;;6.72;1.40;;;;;;;;;;5018877;28;20032;-92
2021/08/08 12:08:04;;;;;;;6.85;1.40;;;;;;;;;;5014324;28;20025;-94
2021/08/08 12:10:38;;;;;;;6.78;1.55;;;;;;;;;;5018880;28;20030;-93
2021/08/08 12:13:14;;;;;;;6.47;1.35;;;;;;;;;;5016215;28;20124;-93
2021/08/08 12:15:39;;;;;;;5.75;1.40;;;;;;;;;;5022001;28;20554;-93
2021/08/08 12:18:04;;;;;;;3.65;1.20;;;;;;;;;;5015203;28;20017;-93
2021/08/08 12:20:37;;;;;;;4.85;1.42;;;;;;;;;;5026069;28;20064;-93
2021/08/08 12:23:03;;;;;;;5.68;1.48;;;;;;;;;;5014199;28;20036;-93
2021/08/08 12:25:28;;;;;;;2.72;1.20;;;;;;;;;;5017677;28;20183;-93
2021/08/08 12:27:54;;;;;;;7.10;1.35;;;;;;;;;;5022088;28;20045;-93
2021/08/08 12:30:19;;;;;;;3.03;1.02;;;;;;;;;;5015046;28;20117;-93
2021/08/08 12:32:44;;;;;;;8.90;2.47;;;;;;;;;;5014206;28;20112;-92
2021/08/08 12:35:11;;;;;;;5.93;1.17;;;;;;;;;;5016207;28;20072;-93
2021/08/08 12:37:37;;;;;;;5.70;1.30;;;;;;;;;;5019840;28;20049;-93
2021/08/08 12:40:21;;;;;;;13.85;2.33;;;;;;;;;;5020148;28;20018;-93
2021/08/08 12:42:46;;;;;;;7.55;1.20;;;;;;;;;;5011464;28;20049;-93
2021/08/08 12:45:15;;;;;;;7.28;1.10;;;;;;;;;;5015219;28;20030;-94
2021/08/08 12:47:41;;;;;;;3.63;1.20;;;;;;;;;;5023132;28;20432;-93
2021/08/08 12:50:16;;;;;;;5.32;1.70;;;;;;;;;;5019842;28;20049;-93
2021/08/08 12:52:42;;;;;;;5.43;1.65;;;;;;;;;;5010507;28;20014;-92
2021/08/08 12:55:07;;;;;;;3.55;1.20;;;;;;;;;;5012818;28;20021;-93
2021/08/08 12:57:32;;;;;;;8.48;1.17;;;;;;;;;;5014138;28;20046;-94
2021/08/08 12:59:58;;;;;;;2.65;1.08;;;;;;;;;;5018929;28;20104;-94
2021/08/08 13:02:23;;;;;;;6.93;1.40;;;;;;;;;;5018626;28;20014;-93
2021/08/08 13:04:49;;;;;;;2.92;1.45;;;;;;;;;;5017602;28;20444;-93
2021/08/08 13:07:14;;;;;;;3.88;1.35;;;;;;;;;;5016678;28;20026;-93
2021/08/08 13:09:39;;;;;;;3.95;1.40;;;;;;;;;;5012446;28;20037;-93
2021/08/08 13:12:05;;;;;;;6.03;1.48;;;;;;;;;;5012817;28;20079;-93
2021/08/08 13:14:31;;;;;;;6.90;1.65;;;;;;;;;;5013005;28;20026;-93
2021/08/08 13:16:56;;;;;;;3.83;1.20;;;;;;;;;;5016460;28;20022;-93
2021/08/08 13:19:21;;;;;;;5.13;1.33;;;;;;;;;;5016331;28;20036;-93
2021/08/08 13:21:46;;;;;;;4.40;1.10;;;;;;;;;;5021892;28;20093;-94
2021/08/08 13:24:11;;;;;;;5.72;1.25;;;;;;;;;;5015856;28;20049;-93
2021/08/08 13:26:37;;;;;;;3.53;1.25;;;;;;;;;;5022804;28;20381;-94
2021/08/08 13:29:02;;;;;;;3.03;1.48;;;;;;;;;;5015654;28;20108;-94
2021/08/08 13:31:27;;;;;;;2.33;0.95;;;;;;;;;;5022362;28;20033;-94
2021/08/08 13:33:52;;;;;;;8.65;0.85;;;;;;;;;;5023942;28;20030;-93
2021/08/08 13:36:18;;;;;;;12.35;1.23;;;;;;;;;;5016217;28;20041;-93
2021/08/08 13:38:43;;;;;;;5.15;0.90;;;;;;;;;;5027637;28;20022;-93
2021/08/08 13:41:08;;;;;;;4.43;1.23;;;;;;;;;;5017832;28;20029;-92
2021/08/08 13:43:33;;;;;;;2.65;1.05;;;;;;;;;;5021071;28;20025;-93
2021/08/08 13:45:59;;;;;;;3.83;1.13;;;;;;;;;;5019239;28;20061;-93
2021/08/08 13:48:24;;;;;;;2.78;1.08;;;;;;;;;;5015614;28;20466;-93
2021/08/08 13:50:49;;;;;;;3.90;1.27;;;;;;;;;;5016286;28;20037;-93
2021/08/08 13:53:14;;;;;;;4.97;1.30;;;;;;;;;;5022376;28;20037;-93
2021/08/08 13:55:40;;;;;;;2.28;1.02;;;;;;;;;;5027007;28;20021;-92
2021/08/08 13:58:05;;;;;;;1.83;0.93;;;;;;;;;;5017945;28;20497;-92
2021/08/08 14:00:30;;;;;;;4.15;1.15;;;;;;;;;;5020856;28;20029;-92
2021/08/08 14:02:55;;;;;;;2.80;1.30;;;;;;;;;;5023354;28;20029;-93
2021/08/08 14:05:21;;;;;;;3.17;1.20;;;;;;;;;;5022066;28;20372;-92
2021/08/08 14:07:46;;;;;;;2.42;1.13;;;;;;;;;;5024748;28;20049;-92
2021/08/08 14:10:12;;;;;;;3.13;1.10;;;;;;;;;;5026520;28;20021;-93
2021/08/08 14:12:38;;;;;;;4.38;1.13;;;;;;;;;;5020685;28;20469;-93
2021/08/08 14:15:03;;;;;;;3.00;0.95;;;;;;;;;;5027188;28;20018;-93
2021/08/08 14:17:29;;;;;;;5.47;1.75;;;;;;;;;;5015082;28;20048;-92
2021/08/08 14:19:54;;;;;;;5.30;1.00;;;;;;;;;;5023383;28;20076;-93
2021/08/08 14:22:19;;;;;;;3.92;1.00;;;;;;;;;;5023102;28;20448;-92
2021/08/08 14:24:46;;;;;;;4.38;1.20;;;;;;;;;;5027571;28;20100;-93
2021/08/08 14:27:11;;;;;;;3.78;1.27;;;;;;;;;;5016392;28;20028;-92
2021/08/08 14:29:36;;;;;;;5.60;1.55;;;;;;;;;;5015135;28;20385;-93